Time;durP1;ratioP1;P1;durP2;ratioP2;P2;SDS_P1;SDS_P2;PMS_P1;PMS_P2;Temp;Humidity;BMP_temperature;BMP_pressure;BME280_temperature;BME280_humidity;BME280_pressure;Samples;Min_cycle;Max_cycle;Signal;HPM_P1;HPM_P2
2022/09/25 00:02:00;;;;;;;5.37;2.83;;;;;;;;;;5072442;28;20070;-69
2022/09/25 00:04:26;;;;;;;4.87;3.03;;;;;;;;;;5073078;28;20057;-69
2022/09/25 00:06:53;;;;;;;7.80;2.93;;;;;;;;;;5073069;28;20039;-68
2022/09/25 00:09:22;;;;;;;6.17;2.47;;;;;;;;;;5067570;28;20029;-68
2022/09/25 00:11:49;;;;;;;5.10;2.60;;;;;;;;;;5067642;28;20031;-68
2022/09/25 00:14:16;;;;;;;3.40;2.27;;;;;;;;;;5067120;28;20069;-68
2022/09/25 00:16:42;;;;;;;4.57;2.63;;;;;;;;;;5067427;28;20024;-68
2022/09/25 00:21:55;;;;;;;7.10;3.87;;;;;;;;;;5072801;28;20533;-68
2022/09/25 00:24:22;;;;;;;6.90;3.50;;;;;;;;;;5072629;28;20033;-68
2022/09/25 00:26:49;;;;;;;23.57;4.33;;;;;;;;;;5072372;28;20059;-67
2022/09/25 00:29:18;;;;;;;4.50;3.20;;;;;;;;;;5072177;28;20036;-67
2022/09/25 00:31:44;;;;;;;9.67;4.07;;;;;;;;;;5066779;28;20020;-68
2022/09/25 00:34:14;;;;;;;4.77;3.57;;;;;;;;;;5067076;28;20044;-68
2022/09/25 00:36:40;;;;;;;11.10;3.77;;;;;;;;;;5067384;28;20032;-68
2022/09/25 00:39:07;;;;;;;8.03;3.10;;;;;;;;;;5066907;28;20103;-68
2022/09/25 00:41:34;;;;;;;6.93;3.43;;;;;;;;;;5071673;28;20464;-68
2022/09/25 00:44:02;;;;;;;8.40;5.10;;;;;;;;;;5072546;28;20036;-67
2022/09/25 00:46:30;;;;;;;5.00;3.77;;;;;;;;;;5072482;28;20075;-68
2022/09/25 00:49:09;;;;;;;5.47;4.03;;;;;;;;;;5072028;28;20052;-68
2022/09/25 00:51:42;;;;;;;5.30;3.43;;;;;;;;;;5072141;28;20059;-67
2022/09/25 00:54:21;;;;;;;4.47;3.13;;;;;;;;;;5067025;28;20057;-68
2022/09/25 00:56:49;;;;;;;9.17;4.83;;;;;;;;;;5066825;28;20036;-68
2022/09/25 00:59:28;;;;;;;4.47;2.87;;;;;;;;;;5066951;28;20031;-67
2022/09/25 01:01:54;;;;;;;5.20;3.27;;;;;;;;;;5066872;28;20028;-68
2022/09/25 01:04:22;;;;;;;5.70;3.67;;;;;;;;;;5071842;28;20372;-67
2022/09/25 01:06:49;;;;;;;4.60;2.80;;;;;;;;;;5072106;28;20021;-67
2022/09/25 01:09:16;;;;;;;5.83;3.03;;;;;;;;;;5072199;28;20375;-68
2022/09/25 01:11:44;;;;;;;3.80;2.97;;;;;;;;;;5071222;28;20029;-68
2022/09/25 01:14:15;;;;;;;3.97;2.97;;;;;;;;;;5071908;28;20029;-67
2022/09/25 01:16:55;;;;;;;6.07;3.97;;;;;;;;;;5066942;28;20039;-67
2022/09/25 01:19:28;;;;;;;3.73;2.60;;;;;;;;;;5067091;28;20025;-67
2022/09/25 01:22:13;;;;;;;4.77;3.10;;;;;;;;;;5066924;28;20430;-67
2022/09/25 01:24:55;;;;;;;2.88;1.80;;;;;;;;;;5061446;28;20502;-67
2022/09/25 01:27:33;;;;;;;5.30;2.20;;;;;;;;;;5070868;28;20104;-68
2022/09/25 01:30:29;;;;;;;3.13;2.43;;;;;;;;;;5071708;28;20046;-68
2022/09/25 01:33:06;;;;;;;3.37;1.97;;;;;;;;;;5055250;28;20419;-68
2022/09/25 01:35:39;;;;;;;4.43;2.03;;;;;;;;;;5072086;28;20021;-67
2022/09/25 01:38:14;;;;;;;7.77;4.47;;;;;;;;;;5068207;28;20037;-68
2022/09/25 01:40:49;;;;;;;11.00;6.38;;;;;;;;;;5066552;28;20031;-68
2022/09/25 01:43:19;;;;;;;6.33;3.47;;;;;;;;;;5070040;28;20074;-68
2022/09/25 01:45:48;;;;;;;3.57;2.07;;;;;;;;;;5070734;28;20024;-68
2022/09/25 01:48:16;;;;;;;5.97;2.80;;;;;;;;;;5073547;28;20028;-69
2022/09/25 01:50:58;;;;;;;7.27;2.80;;;;;;;;;;5075596;28;20116;-68
2022/09/25 01:53:31;;;;;;;3.67;2.47;;;;;;;;;;5075681;28;20025;-67
2022/09/25 01:56:01;;;;;;;6.07;2.43;;;;;;;;;;5075710;28;20025;-68
2022/09/25 01:58:31;;;;;;;2.80;2.07;;;;;;;;;;5075321;28;20036;-67
2022/09/25 02:01:01;;;;;;;6.37;3.73;;;;;;;;;;5070857;28;20078;-67
2022/09/25 02:03:30;;;;;;;4.97;2.53;;;;;;;;;;5069830;28;20107;-68
2022/09/25 02:05:59;;;;;;;4.00;2.53;;;;;;;;;;5083189;28;20027;-67
2022/09/25 02:08:28;;;;;;;1.33;1.13;;;;;;;;;;5090446;28;20052;-66
2022/09/25 02:11:01;;;;;;;6.90;2.80;;;;;;;;;;5053941;28;20029;-65
2022/09/25 02:13:33;;;;;;;6.10;3.33;;;;;;;;;;5054972;28;20045;-65
2022/09/25 02:16:04;;;;;;;4.23;2.83;;;;;;;;;;5055224;28;20098;-65
2022/09/25 02:21:34;;;;;;;3.33;2.53;;;;;;;;;;5065827;28;20497;-65
2022/09/25 02:24:07;;;;;;;3.80;2.60;;;;;;;;;;5090132;28;20028;-65
2022/09/25 02:26:34;;;;;;;1.83;1.50;;;;;;;;;;5069828;28;20024;-65
2022/09/25 02:29:06;;;;;;;4.17;2.87;;;;;;;;;;5069460;28;20028;-65
2022/09/25 02:31:39;;;;;;;3.90;3.30;;;;;;;;;;5069890;28;20099;-65
2022/09/25 02:34:06;;;;;;;3.27;2.30;;;;;;;;;;5075104;28;20047;-65
2022/09/25 02:36:33;;;;;;;13.33;3.40;;;;;;;;;;5074946;28;20341;-65
2022/09/25 02:39:00;;;;;;;6.73;3.73;;;;;;;;;;5074931;28;20024;-65
2022/09/25 02:41:45;;;;;;;10.07;3.30;;;;;;;;;;5074820;28;20035;-65
2022/09/25 02:44:11;;;;;;;;;;;;;;;;;;5073349;28;20032;-65
2022/09/25 02:46:52;;;;;;;2.70;2.27;;;;;;;;;;5069553;28;20046;-65
2022/09/25 02:49:27;;;;;;;4.93;3.20;;;;;;;;;;5069447;28;20499;-65
2022/09/25 02:52:05;;;;;;;6.13;3.47;;;;;;;;;;5069511;28;20078;-65
2022/09/25 02:54:35;;;;;;;6.03;3.53;;;;;;;;;;5070625;28;20032;-65
2022/09/25 02:57:10;;;;;;;4.53;3.27;;;;;;;;;;5074128;28;20024;-65
2022/09/25 02:59:45;;;;;;;6.70;2.40;;;;;;;;;;5063730;28;20379;-65
2022/09/25 03:02:12;;;;;;;2.67;2.15;;;;;;;;;;5070425;28;20062;-65
2022/09/25 03:04:39;;;;;;;3.77;2.57;;;;;;;;;;5065864;28;20040;-66
2022/09/25 03:07:06;;;;;;;1.87;1.50;;;;;;;;;;5067972;28;20028;-65
2022/09/25 03:09:35;;;;;;;6.40;2.13;;;;;;;;;;5069139;28;20036;-65
2022/09/25 03:12:05;;;;;;;4.50;1.70;;;;;;;;;;5069022;28;20020;-65
2022/09/25 03:14:32;;;;;;;2.63;1.70;;;;;;;;;;5069033;28;20032;-65
2022/09/25 03:17:03;;;;;;;4.00;2.07;;;;;;;;;;5070687;28;20103;-65
2022/09/25 03:19:30;;;;;;;3.70;1.63;;;;;;;;;;5073271;28;20036;-65
2022/09/25 03:21:57;;;;;;;11.43;2.73;;;;;;;;;;5073728;28;20082;-64
2022/09/25 03:24:24;;;;;;;3.73;1.77;;;;;;;;;;5073840;28;20029;-68
2022/09/25 03:26:51;;;;;;;39.60;2.57;;;;;;;;;;5073925;28;20024;-70
2022/09/25 03:29:17;;;;;;;1.87;1.50;;;;;;;;;;5071697;28;20028;-70
2022/09/25 03:31:44;;;;;;;3.80;2.80;;;;;;;;;;5066379;28;20033;-70
2022/09/25 03:34:12;;;;;;;6.53;2.00;;;;;;;;;;5068511;28;20070;-68
2022/09/25 03:36:39;;;;;;;3.97;1.80;;;;;;;;;;5068491;28;20060;-68
2022/09/25 03:39:05;;;;;;;1.90;1.60;;;;;;;;;;5070039;28;20031;-68
2022/09/25 03:41:33;;;;;;;3.60;2.13;;;;;;;;;;5073684;28;20049;-69
2022/09/25 03:44:00;;;;;;;2.73;1.90;;;;;;;;;;5073830;28;20043;-68
2022/09/25 03:46:28;;;;;;;10.47;2.73;;;;;;;;;;5073132;28;20035;-65
2022/09/25 03:48:55;;;;;;;3.73;2.10;;;;;;;;;;5069775;28;20013;-66
2022/09/25 03:51:22;;;;;;;4.40;1.80;;;;;;;;;;5051608;28;20020;-67
2022/09/25 03:53:50;;;;;;;3.97;1.60;;;;;;;;;;5048510;28;20035;-67
2022/09/25 03:56:19;;;;;;;4.60;1.93;;;;;;;;;;5065377;28;20020;-68
2022/09/25 03:58:46;;;;;;;4.07;2.47;;;;;;;;;;5068399;28;20067;-68
2022/09/25 04:01:13;;;;;;;2.70;1.93;;;;;;;;;;5068951;28;20037;-67
2022/09/25 04:03:44;;;;;;;1.67;1.33;;;;;;;;;;5073140;28;20033;-66
2022/09/25 04:06:11;;;;;;;2.53;1.60;;;;;;;;;;5068143;28;20021;-65
2022/09/25 04:08:38;;;;;;;2.20;1.50;;;;;;;;;;5072741;28;20032;-65
2022/09/25 04:11:04;;;;;;;2.80;2.20;;;;;;;;;;5072836;28;20024;-68
2022/09/25 04:13:32;;;;;;;2.23;1.63;;;;;;;;;;5071425;28;20375;-68
2022/09/25 04:16:00;;;;;;;3.43;1.53;;;;;;;;;;5067959;28;20027;-70
2022/09/25 04:18:30;;;;;;;0.80;0.73;;;;;;;;;;5068097;28;20493;-70
2022/09/25 04:20:57;;;;;;;2.40;1.27;;;;;;;;;;5067611;28;20024;-69
2022/09/25 04:23:24;;;;;;;2.87;1.80;;;;;;;;;;5068363;28;20505;-66
2022/09/25 04:25:52;;;;;;;4.00;1.87;;;;;;;;;;5072587;28;20086;-67
2022/09/25 04:28:18;;;;;;;9.83;1.50;;;;;;;;;;5072904;28;20106;-67
2022/09/25 04:30:45;;;;;;;7.20;1.87;;;;;;;;;;5072677;28;20027;-66
2022/09/25 04:35:57;;;;;;;1.77;1.35;;;;;;;;;;5070723;28;20387;-66
2022/09/25 04:38:23;;;;;;;9.40;1.47;;;;;;;;;;5067881;28;20090;-66
2022/09/25 04:40:50;;;;;;;2.00;1.40;;;;;;;;;;5067149;28;20035;-67
2022/09/25 04:43:17;;;;;;;4.13;2.00;;;;;;;;;;5067102;28;20032;-67
2022/09/25 04:45:45;;;;;;;2.60;1.50;;;;;;;;;;5068460;28;20024;-66
2022/09/25 04:48:12;;;;;;;3.43;1.47;;;;;;;;;;5072340;28;20020;-66
2022/09/25 04:50:39;;;;;;;1.90;1.70;;;;;;;;;;5070912;28;20095;-67
2022/09/25 04:53:05;;;;;;;1.80;1.10;;;;;;;;;;5071850;28;20487;-67
2022/09/25 04:55:33;;;;;;;1.03;0.90;;;;;;;;;;5072239;28;20017;-66
2022/09/25 04:58:00;;;;;;;2.70;1.40;;;;;;;;;;5071183;28;20098;-66
2022/09/25 05:00:29;;;;;;;4.33;1.53;;;;;;;;;;5067331;28;20029;-66
2022/09/25 05:02:56;;;;;;;3.43;1.80;;;;;;;;;;5066867;28;20067;-66
2022/09/25 05:05:26;;;;;;;2.70;1.50;;;;;;;;;;5055617;28;20033;-67
2022/09/25 05:07:56;;;;;;;1.47;1.10;;;;;;;;;;5046728;28;20037;-66
2022/09/25 05:10:26;;;;;;;1.20;1.10;;;;;;;;;;5052183;28;20086;-67
2022/09/25 05:13:00;;;;;;;1.10;0.90;;;;;;;;;;5052186;28;20025;-66
2022/09/25 05:15:27;;;;;;;10.13;1.17;;;;;;;;;;5052843;28;20025;-66
2022/09/25 05:18:04;;;;;;;1.70;1.03;;;;;;;;;;5077465;28;20029;-66
2022/09/25 05:20:31;;;;;;;3.03;1.63;;;;;;;;;;5077623;28;20378;-66
2022/09/25 05:22:58;;;;;;;0.87;0.73;;;;;;;;;;5073441;28;20036;-67
2022/09/25 05:25:26;;;;;;;1.60;1.13;;;;;;;;;;5073491;28;20445;-66
2022/09/25 05:27:56;;;;;;;1.80;1.43;;;;;;;;;;5073434;28;20368;-66
2022/09/25 05:30:23;;;;;;;1.40;1.17;;;;;;;;;;5074194;28;20027;-66
2022/09/25 05:32:50;;;;;;;1.77;1.37;;;;;;;;;;5078766;28;20063;-65
2022/09/25 05:35:21;;;;;;;2.10;1.60;;;;;;;;;;5078442;28;20027;-66
2022/09/25 05:37:47;;;;;;;1.83;1.33;;;;;;;;;;5078717;28;20112;-66
2022/09/25 05:40:15;;;;;;;1.80;1.13;;;;;;;;;;5078636;28;20024;-65
2022/09/25 05:42:44;;;;;;;1.97;1.17;;;;;;;;;;5077291;28;20028;-66
2022/09/25 05:45:12;;;;;;;3.70;2.13;;;;;;;;;;5073344;28;20033;-66
2022/09/25 05:47:38;;;;;;;1.83;1.43;;;;;;;;;;5073456;28;20090;-66
2022/09/25 05:50:05;;;;;;;2.63;1.77;;;;;;;;;;5073270;28;20060;-66
2022/09/25 05:52:32;;;;;;;1.33;1.00;;;;;;;;;;5073568;28;20668;-66
2022/09/25 05:54:59;;;;;;;0.93;0.73;;;;;;;;;;5078513;28;20025;-65
2022/09/25 05:57:28;;;;;;;2.33;1.70;;;;;;;;;;5078073;28;20021;-65
2022/09/25 05:59:55;;;;;;;2.43;1.13;;;;;;;;;;5078461;28;20043;-65
2022/09/25 06:02:21;;;;;;;0.90;0.83;;;;;;;;;;5078343;28;20395;-66
2022/09/25 06:04:48;;;;;;;6.27;1.43;;;;;;;;;;5077726;28;20621;-66
2022/09/25 06:07:15;;;;;;;1.47;1.17;;;;;;;;;;5073117;28;20025;-66
2022/09/25 06:09:41;;;;;;;0.47;0.47;;;;;;;;;;5072939;28;20037;-66
2022/09/25 06:12:08;;;;;;;2.63;1.57;;;;;;;;;;5073032;28;20487;-66
2022/09/25 06:14:35;;;;;;;1.40;1.20;;;;;;;;;;5072959;28;20360;-66
2022/09/25 06:17:02;;;;;;;2.70;1.53;;;;;;;;;;5078068;28;20356;-66
2022/09/25 06:19:29;;;;;;;2.23;0.97;;;;;;;;;;5078281;28;20021;-66
2022/09/25 06:21:56;;;;;;;0.60;0.50;;;;;;;;;;5077892;28;20025;-66
2022/09/25 06:24:23;;;;;;;0.63;0.60;;;;;;;;;;5077937;28;20060;-65
2022/09/25 06:26:50;;;;;;;1.43;0.97;;;;;;;;;;5077960;28;20548;-66
2022/09/25 06:29:17;;;;;;;0.80;0.67;;;;;;;;;;5069280;28;20033;-66
2022/09/25 06:31:44;;;;;;;2.87;1.17;;;;;;;;;;5069772;28;20017;-66
2022/09/25 06:34:11;;;;;;;0.80;0.60;;;;;;;;;;5069728;28;20020;-66
2022/09/25 06:36:38;;;;;;;1.17;1.00;;;;;;;;;;5069709;28;20082;-66
2022/09/25 06:39:05;;;;;;;2.30;1.80;;;;;;;;;;5073516;28;20111;-66
2022/09/25 06:41:31;;;;;;;1.53;1.00;;;;;;;;;;5074927;28;20020;-66
2022/09/25 06:43:58;;;;;;;1.63;1.30;;;;;;;;;;5074471;28;20078;-65
2022/09/25 06:46:25;;;;;;;1.23;0.97;;;;;;;;;;5074687;28;20043;-65
2022/09/25 06:48:56;;;;;;;0.57;0.50;;;;;;;;;;5074572;28;20426;-66
2022/09/25 06:51:24;;;;;;;2.10;1.20;;;;;;;;;;5069627;28;20071;-66
2022/09/25 06:53:54;;;;;;;2.80;1.73;;;;;;;;;;5069062;28;20027;-67
2022/09/25 06:56:21;;;;;;;5.43;1.30;;;;;;;;;;5069365;28;20052;-66
2022/09/25 06:58:48;;;;;;;1.43;0.90;;;;;;;;;;5069763;28;20435;-66
2022/09/25 07:01:14;;;;;;;0.80;0.70;;;;;;;;;;5073360;28;20381;-66
2022/09/25 07:03:44;;;;;;;1.57;0.97;;;;;;;;;;5074284;28;20048;-65
2022/09/25 07:06:12;;;;;;;1.93;0.97;;;;;;;;;;5073945;28;20099;-65
2022/09/25 07:08:40;;;;;;;0.60;0.60;;;;;;;;;;5074315;28;20021;-65
2022/09/25 07:11:07;;;;;;;1.83;1.10;;;;;;;;;;5074363;28;20111;-66
2022/09/25 07:13:35;;;;;;;0.97;0.70;;;;;;;;;;5069878;28;20032;-66
2022/09/25 07:16:06;;;;;;;3.00;1.30;;;;;;;;;;5069019;28;20056;-66
2022/09/25 07:18:33;;;;;;;1.20;1.03;;;;;;;;;;5068653;28;20380;-65
2022/09/25 07:21:01;;;;;;;0.50;0.50;;;;;;;;;;5068901;28;20025;-66
2022/09/25 07:23:30;;;;;;;0.87;0.73;;;;;;;;;;5072354;28;20017;-66
2022/09/25 07:25:57;;;;;;;1.23;0.90;;;;;;;;;;5073967;28;20487;-66
2022/09/25 07:28:24;;;;;;;1.30;0.83;;;;;;;;;;5073976;28;20131;-66
2022/09/25 07:30:51;;;;;;;1.33;1.00;;;;;;;;;;5073935;28;20017;-66
2022/09/25 07:33:18;;;;;;;1.90;1.50;;;;;;;;;;5073559;28;20021;-66
2022/09/25 07:35:45;;;;;;;2.57;1.37;;;;;;;;;;5069756;28;20020;-65
2022/09/25 07:38:12;;;;;;;1.13;0.83;;;;;;;;;;5068607;28;20025;-65
2022/09/25 07:40:38;;;;;;;1.90;1.13;;;;;;;;;;5066534;28;20103;-66
2022/09/25 07:43:05;;;;;;;0.87;0.73;;;;;;;;;;5068476;28;20035;-66
2022/09/25 07:45:32;;;;;;;0.77;0.70;;;;;;;;;;5071369;28;20029;-66
2022/09/25 07:48:02;;;;;;;10.00;1.20;;;;;;;;;;5073727;28;20162;-66
2022/09/25 07:50:29;;;;;;;2.17;1.37;;;;;;;;;;5073503;28;20021;-66
2022/09/25 07:52:56;;;;;;;1.27;0.93;;;;;;;;;;5073199;28;20491;-65
2022/09/25 07:55:23;;;;;;;2.83;1.33;;;;;;;;;;5073372;28;20028;-65
2022/09/25 07:57:50;;;;;;;1.47;1.20;;;;;;;;;;5069650;28;20016;-66
2022/09/25 08:00:18;;;;;;;5.40;2.33;;;;;;;;;;5068082;28;20024;-66
2022/09/25 08:02:44;;;;;;;1.60;0.93;;;;;;;;;;5068185;28;20042;-65
2022/09/25 08:05:11;;;;;;;2.33;1.13;;;;;;;;;;5067992;28;20036;-66
2022/09/25 08:07:38;;;;;;;1.20;0.90;;;;;;;;;;5070353;28;20031;-66
2022/09/25 08:10:05;;;;;;;2.90;1.27;;;;;;;;;;5072657;28;20028;-66
2022/09/25 08:12:31;;;;;;;1.13;0.93;;;;;;;;;;5072861;28;20518;-66
2022/09/25 08:14:58;;;;;;;1.17;1.00;;;;;;;;;;5072975;28;20024;-65
2022/09/25 08:17:30;;;;;;;0.90;0.70;;;;;;;;;;5073127;28;20143;-66
2022/09/25 08:19:57;;;;;;;2.40;1.43;;;;;;;;;;5070088;28;20020;-66
2022/09/25 08:22:23;;;;;;;2.83;1.00;;;;;;;;;;5067308;28;20111;-66
2022/09/25 08:24:50;;;;;;;1.90;1.60;;;;;;;;;;5067533;28;20040;-66
2022/09/25 08:27:17;;;;;;;1.37;1.10;;;;;;;;;;5067628;28;20379;-65
2022/09/25 08:29:43;;;;;;;3.83;1.90;;;;;;;;;;5069399;28;20028;-65
2022/09/25 08:32:11;;;;;;;2.40;1.73;;;;;;;;;;5072647;28;20028;-65
2022/09/25 08:34:37;;;;;;;2.20;1.60;;;;;;;;;;5072356;28;20066;-65
2022/09/25 08:37:06;;;;;;;3.23;1.70;;;;;;;;;;5072759;28;20036;-65
2022/09/25 08:39:33;;;;;;;3.73;1.07;;;;;;;;;;5072206;28;20082;-65
2022/09/25 08:42:00;;;;;;;1.80;1.20;;;;;;;;;;5070018;28;20016;-65
2022/09/25 08:44:38;;;;;;;0.93;0.83;;;;;;;;;;5066631;28;20033;-66
2022/09/25 08:50:02;;;;;;;1.00;0.90;;;;;;;;;;5067164;28;20086;-65
2022/09/25 08:52:30;;;;;;;1.43;1.20;;;;;;;;;;5070005;28;20056;-65
2022/09/25 08:54:56;;;;;;;1.27;0.97;;;;;;;;;;5072135;28;20371;-66
2022/09/25 08:57:33;;;;;;;5.23;0.90;;;;;;;;;;5072545;28;20063;-65
2022/09/25 09:00:02;;;;;;;6.87;1.57;;;;;;;;;;5072315;28;20149;-65
2022/09/25 09:02:41;;;;;;;1.93;1.20;;;;;;;;;;5072280;28;20056;-65
2022/09/25 09:05:15;;;;;;;1.73;1.30;;;;;;;;;;5067675;28;20028;-65
2022/09/25 09:07:48;;;;;;;1.38;1.17;;;;;;;;;;5067261;28;20031;-65
2022/09/25 09:10:15;;;;;;;0.93;0.77;;;;;;;;;;5066360;28;20074;-66
2022/09/25 09:12:46;;;;;;;3.90;2.10;;;;;;;;;;5067039;28;20017;-65
2022/09/25 09:15:22;;;;;;;2.67;1.30;;;;;;;;;;5071025;28;20021;-65
2022/09/25 09:17:49;;;;;;;2.20;1.37;;;;;;;;;;5072300;28;20031;-65
2022/09/25 09:20:18;;;;;;;1.23;1.00;;;;;;;;;;5072121;28;20025;-65
2022/09/25 09:22:50;;;;;;;0.97;0.83;;;;;;;;;;5071677;28;20115;-65
2022/09/25 09:25:49;;;;;;;1.23;1.07;;;;;;;;;;5072049;28;20537;-65
2022/09/25 09:28:24;;;;;;;1.20;0.80;;;;;;;;;;5022332;28;20037;-65
2022/09/25 09:31:01;;;;;;;1.00;0.90;;;;;;;;;;5066625;28;20090;-65
2022/09/25 09:33:46;;;;;;;0.63;0.63;;;;;;;;;;5066518;28;20029;-65
2022/09/25 09:36:19;;;;;;;4.22;1.25;;;;;;;;;;5067751;28;20025;-65
2022/09/25 09:39:04;;;;;;;2.27;1.67;;;;;;;;;;5071861;28;20383;-65
2022/09/25 09:41:39;;;;;;;0.55;0.50;;;;;;;;;;5071801;28;20025;-65
2022/09/25 09:44:11;;;;;;;0.47;0.45;;;;;;;;;;5071924;28;20028;-65
2022/09/25 09:46:43;;;;;;;0.77;0.60;;;;;;;;;;5071907;28;20021;-65
2022/09/25 09:49:18;;;;;;;1.17;0.80;;;;;;;;;;5068902;28;20020;-65
2022/09/25 09:51:50;;;;;;;1.15;0.77;;;;;;;;;;5066212;28;20491;-65
2022/09/25 09:54:30;;;;;;;1.73;1.27;;;;;;;;;;5066599;28;20479;-65
2022/09/25 09:56:57;;;;;;;1.50;1.10;;;;;;;;;;5066402;28;20036;-65
2022/09/25 09:59:42;;;;;;;1.60;1.10;;;;;;;;;;5069795;28;20016;-64
2022/09/25 10:02:38;;;;;;;0.63;0.63;;;;;;;;;;5071462;28;20020;-65
2022/09/25 10:05:04;;;;;;;;;;;;;;;;;;5004706;28;20068;-64
2022/09/25 10:07:33;;;;;;;2.83;1.20;;;;;;;;;;5075725;28;19911;-64
2022/09/25 10:10:00;;;;;;;1.70;1.20;;;;;;;;;;5075316;28;20032;-65
2022/09/25 10:12:32;;;;;;;1.93;0.83;;;;;;;;;;5070043;28;20033;-65
2022/09/25 10:15:01;;;;;;;1.87;1.17;;;;;;;;;;5069904;28;20115;-65
2022/09/25 10:17:29;;;;;;;1.50;1.30;;;;;;;;;;5070293;28;20047;-65
2022/09/25 10:20:14;;;;;;;1.90;1.03;;;;;;;;;;5052050;28;20427;-65
2022/09/25 10:22:44;;;;;;;1.55;1.25;;;;;;;;;;5075119;28;20064;-65
2022/09/25 10:25:11;;;;;;;35.97;1.40;;;;;;;;;;5075061;28;20049;-64
2022/09/25 10:27:47;;;;;;;1.17;0.97;;;;;;;;;;5075050;28;20025;-65
2022/09/25 10:30:19;;;;;;;2.63;1.53;;;;;;;;;;5074563;28;20024;-65
2022/09/25 10:32:45;;;;;;;1.43;0.90;;;;;;;;;;5073778;28;20126;-65
2022/09/25 10:35:22;;;;;;;0.63;0.57;;;;;;;;;;5069816;28;20074;-65
2022/09/25 10:37:51;;;;;;;1.37;1.00;;;;;;;;;;5069740;28;20032;-65
2022/09/25 10:40:24;;;;;;;0.70;0.70;;;;;;;;;;5069663;28;20021;-65
2022/09/25 10:43:01;;;;;;;0.73;0.70;;;;;;;;;;5070436;28;20028;-65
2022/09/25 10:45:33;;;;;;;1.23;0.90;;;;;;;;;;5054732;28;20037;-65
2022/09/25 10:50:45;;;;;;;1.13;0.93;;;;;;;;;;5055148;28;20089;-65
2022/09/25 10:53:29;;;;;;;2.43;1.10;;;;;;;;;;5054248;28;20479;-65
2022/09/25 10:56:06;;;;;;;2.27;0.90;;;;;;;;;;5052080;28;20021;-65
2022/09/25 10:58:36;;;;;;;1.33;1.00;;;;;;;;;;5065218;28;20027;-65
2022/09/25 11:01:03;;;;;;;2.70;1.60;;;;;;;;;;5069290;28;20028;-65
2022/09/25 11:03:33;;;;;;;0.80;0.77;;;;;;;;;;5068527;28;20400;-65
2022/09/25 11:06:10;;;;;;;3.07;1.07;;;;;;;;;;5071966;28;20063;-66
2022/09/25 11:08:40;;;;;;;1.20;1.10;;;;;;;;;;5074478;28;20024;-65
2022/09/25 11:11:08;;;;;;;1.20;0.93;;;;;;;;;;5073920;28;20480;-65
2022/09/25 11:13:53;;;;;;;2.03;1.30;;;;;;;;;;5073718;28;20036;-64
2022/09/25 11:16:19;;;;;;;1.10;0.73;;;;;;;;;;5074191;28;20035;-64
2022/09/25 11:18:48;;;;;;;1.63;1.37;;;;;;;;;;5070094;28;20391;-65
2022/09/25 11:21:18;;;;;;;4.93;1.07;;;;;;;;;;5068611;28;20029;-65
2022/09/25 11:24:07;;;;;;;0.93;0.73;;;;;;;;;;5068868;28;20403;-65
2022/09/25 11:26:42;;;;;;;3.07;1.53;;;;;;;;;;5068486;28;20036;-66
2022/09/25 11:29:29;;;;;;;2.78;1.05;;;;;;;;;;5073405;28;20345;-64
2022/09/25 11:32:09;;;;;;;0.80;0.63;;;;;;;;;;5073731;28;20356;-64
2022/09/25 11:34:41;;;;;;;1.37;0.87;;;;;;;;;;5073886;28;20021;-65
2022/09/25 11:37:26;;;;;;;1.17;0.67;;;;;;;;;;5073893;28;20491;-64
2022/09/25 11:43:06;;;;;;;1.23;0.50;;;;;;;;;;5068665;28;20040;-65
2022/09/25 11:45:46;;;;;;;1.83;1.20;;;;;;;;;;5068082;28;20399;-64
2022/09/25 11:48:21;;;;;;;1.23;1.10;;;;;;;;;;5068362;28;20028;-65
2022/09/25 11:50:54;;;;;;;1.40;1.03;;;;;;;;;;5071401;28;20021;-65
2022/09/25 11:53:31;;;;;;;1.97;1.00;;;;;;;;;;5073138;28;20024;-65
2022/09/25 11:56:05;;;;;;;0.73;0.73;;;;;;;;;;5073274;28;20024;-65
2022/09/25 11:58:42;;;;;;;0.53;0.43;;;;;;;;;;5073492;28;20357;-64
2022/09/25 12:01:27;;;;;;;1.07;0.90;;;;;;;;;;5073403;28;20488;-64
2022/09/25 12:04:12;;;;;;;2.38;1.13;;;;;;;;;;5067737;28;20040;-64
2022/09/25 12:06:57;;;;;;;1.42;1.10;;;;;;;;;;5067597;28;20032;-65
2022/09/25 12:09:42;;;;;;;1.52;1.13;;;;;;;;;;5067894;28;20106;-65
2022/09/25 12:12:22;;;;;;;1.27;0.95;;;;;;;;;;5068851;28;20020;-65
2022/09/25 12:15:07;;;;;;;0.60;0.57;;;;;;;;;;5072993;28;20479;-64
2022/09/25 12:17:34;;;;;;;1.87;1.30;;;;;;;;;;5073008;28;20092;-65
2022/09/25 12:20:07;;;;;;;3.30;1.60;;;;;;;;;;5072730;28;20039;-64
2022/09/25 12:22:52;;;;;;;2.70;1.10;;;;;;;;;;5053008;28;20550;-63
2022/09/25 12:25:39;;;;;;;1.48;0.77;;;;;;;;;;5048964;28;20116;-63
2022/09/25 12:28:21;;;;;;;0.60;0.60;;;;;;;;;;5033982;28;20163;-63
2022/09/25 12:30:47;;;;;;;2.20;1.13;;;;;;;;;;5053546;28;20031;-63
2022/09/25 12:33:24;;;;;;;1.27;0.77;;;;;;;;;;5067518;28;20025;-63
2022/09/25 12:35:54;;;;;;;0.60;0.60;;;;;;;;;;5071605;28;20471;-63
2022/09/25 12:38:24;;;;;;;0.50;0.40;;;;;;;;;;5072719;28;20025;-63
2022/09/25 12:40:56;;;;;;;2.03;1.10;;;;;;;;;;5072693;28;20104;-63
2022/09/25 12:43:32;;;;;;;0.90;0.70;;;;;;;;;;5072250;28;20035;-63
2022/09/25 12:46:12;;;;;;;1.07;0.97;;;;;;;;;;5072305;28;20029;-64
2022/09/25 12:48:48;;;;;;;3.43;1.30;;;;;;;;;;5067310;28;20048;-63
2022/09/25 12:51:20;;;;;;;1.43;1.07;;;;;;;;;;5067461;28;20027;-63
2022/09/25 12:53:56;;;;;;;2.70;0.77;;;;;;;;;;5067019;28;20027;-63
2022/09/25 12:56:23;;;;;;;1.07;0.97;;;;;;;;;;5067383;28;20483;-63
2022/09/25 12:59:12;;;;;;;9.27;2.17;;;;;;;;;;5072474;28;20066;-63
2022/09/25 13:01:52;;;;;;;2.10;1.63;;;;;;;;;;5072377;28;20028;-63
2022/09/25 13:04:33;;;;;;;3.77;2.10;;;;;;;;;;5072029;28;20072;-63
2022/09/25 13:07:08;;;;;;;2.83;1.50;;;;;;;;;;5072340;28;20065;-63
2022/09/25 13:09:51;;;;;;;2.03;1.52;;;;;;;;;;5069435;28;20028;-63
2022/09/25 13:12:18;;;;;;;2.43;1.53;;;;;;;;;;5067109;28;20028;-63
2022/09/25 13:14:56;;;;;;;2.87;1.90;;;;;;;;;;5066936;28;20028;-63
2022/09/25 13:17:23;;;;;;;4.73;2.17;;;;;;;;;;5067103;28;20432;-63
2022/09/25 13:19:49;;;;;;;2.80;2.03;;;;;;;;;;5067532;28;20039;-65
2022/09/25 13:22:23;;;;;;;2.53;2.00;;;;;;;;;;5071496;28;20024;-65
2022/09/25 13:25:01;;;;;;;2.00;1.70;;;;;;;;;;5052825;28;20065;-65
2022/09/25 13:27:31;;;;;;;4.90;2.33;;;;;;;;;;5057781;28;20021;-66
2022/09/25 13:29:59;;;;;;;5.10;3.10;;;;;;;;;;5072203;28;20086;-66
2022/09/25 13:32:30;;;;;;;2.17;1.77;;;;;;;;;;5068589;28;20028;-67
2022/09/25 13:35:00;;;;;;;6.00;2.20;;;;;;;;;;5066804;28;20055;-67
2022/09/25 13:37:32;;;;;;;2.60;1.70;;;;;;;;;;5051139;28;20086;-66
2022/09/25 13:42:45;;;;;;;3.38;2.17;;;;;;;;;;5074921;28;20040;-64
2022/09/25 13:45:33;;;;;;;2.53;2.07;;;;;;;;;;5075458;28;20024;-65
2022/09/25 13:48:01;;;;;;;2.63;1.63;;;;;;;;;;5075933;28;20025;-66
2022/09/25 13:50:30;;;;;;;2.03;1.40;;;;;;;;;;5075968;28;20028;-65
2022/09/25 13:55:48;;;;;;;4.77;2.23;;;;;;;;;;5070726;28;20040;-66
2022/09/25 13:58:18;;;;;;;2.60;1.90;;;;;;;;;;5070854;28;20025;-67
2022/09/25 14:00:58;;;;;;;3.23;2.50;;;;;;;;;;5070665;28;20032;-65
2022/09/25 14:03:43;;;;;;;4.07;2.40;;;;;;;;;;5071198;28;20502;-64
2022/09/25 14:06:11;;;;;;;3.88;2.10;;;;;;;;;;5075173;28;20029;-65
2022/09/25 14:08:40;;;;;;;2.73;2.27;;;;;;;;;;5075626;28;20095;-65
2022/09/25 14:11:08;;;;;;;1.90;1.23;;;;;;;;;;5075346;28;20085;-66
2022/09/25 14:13:35;;;;;;;3.70;2.50;;;;;;;;;;5074448;28;20067;-67
2022/09/25 14:16:03;;;;;;;2.50;1.90;;;;;;;;;;5073420;28;20061;-71
2022/09/25 14:18:46;;;;;;;1.60;1.27;;;;;;;;;;5070285;28;20013;-68
2022/09/25 14:21:14;;;;;;;2.20;1.60;;;;;;;;;;5070275;28;20599;-70
2022/09/25 14:23:50;;;;;;;3.40;2.13;;;;;;;;;;5069913;28;20055;-70
2022/09/25 14:26:21;;;;;;;6.23;1.70;;;;;;;;;;5072346;28;20438;-70
2022/09/25 14:28:48;;;;;;;2.40;2.10;;;;;;;;;;5073179;28;20059;-69
2022/09/25 14:31:23;;;;;;;2.17;1.80;;;;;;;;;;5074911;28;20021;-68
2022/09/25 14:33:53;;;;;;;2.78;2.03;;;;;;;;;;5075174;28;20083;-65
2022/09/25 14:36:35;;;;;;;3.53;1.57;;;;;;;;;;5074921;28;20029;-65
2022/09/25 14:39:17;;;;;;;6.53;2.07;;;;;;;;;;5071828;28;20020;-65
2022/09/25 14:42:03;;;;;;;2.60;1.63;;;;;;;;;;5069868;28;20031;-66
2022/09/25 14:44:49;;;;;;;3.15;1.80;;;;;;;;;;5049914;28;20040;-65
2022/09/25 14:47:17;;;;;;;3.60;1.83;;;;;;;;;;5049659;28;20101;-65
2022/09/25 14:49:46;;;;;;;2.27;1.67;;;;;;;;;;5053776;28;20029;-65
2022/09/25 14:52:17;;;;;;;2.00;1.50;;;;;;;;;;5054882;28;20048;-65
2022/09/25 14:54:46;;;;;;;1.57;1.23;;;;;;;;;;5064455;28;20573;-65
2022/09/25 14:57:16;;;;;;;2.03;1.40;;;;;;;;;;5074756;28;20025;-65
2022/09/25 14:59:50;;;;;;;1.80;1.50;;;;;;;;;;5074496;28;20098;-65
2022/09/25 15:02:17;;;;;;;2.40;1.50;;;;;;;;;;5068811;28;20505;-66
2022/09/25 15:04:43;;;;;;;4.97;1.67;;;;;;;;;;5069206;28;20044;-66
2022/09/25 15:07:16;;;;;;;2.00;1.40;;;;;;;;;;5065242;28;20116;-66
2022/09/25 15:09:47;;;;;;;2.60;1.70;;;;;;;;;;5069432;28;20025;-67
2022/09/25 15:12:17;;;;;;;1.87;1.43;;;;;;;;;;5074574;28;20497;-67
2022/09/25 15:15:04;;;;;;;1.10;0.87;;;;;;;;;;5054466;28;20096;-66
2022/09/25 15:17:32;;;;;;;2.00;1.20;;;;;;;;;;5054456;28;20031;-67
2022/09/25 15:20:01;;;;;;;1.70;1.20;;;;;;;;;;5054071;28;20024;-67
2022/09/25 15:22:34;;;;;;;2.73;1.43;;;;;;;;;;5068408;28;20024;-67
2022/09/25 15:25:02;;;;;;;1.40;1.00;;;;;;;;;;5069104;28;20032;-67
2022/09/25 15:27:30;;;;;;;2.73;1.73;;;;;;;;;;5068987;28;20087;-67
2022/09/25 15:29:58;;;;;;;10.60;1.80;;;;;;;;;;5068530;28;20029;-67